Time;durP1;ratioP1;P1;durP2;ratioP2;P2;SDS_P1;SDS_P2;PMS_P1;PMS_P2;Temp;Humidity;BMP_temperature;BMP_pressure;BME280_temperature;BME280_humidity;BME280_pressure;Samples;Min_cycle;Max_cycle;Signal;HPM_P1;HPM_P2
2021/07/02 00:00:01;;;;;;;3.92;3.50;;;;;;;21.51;59.97;101602.91;5105516;28;20028;-60
2021/07/02 00:02:27;;;;;;;3.92;3.40;;;;;;;21.53;60.11;101608.84;5105296;28;20112;-60
2021/07/02 00:04:52;;;;;;;4.35;3.40;;;;;;;21.51;59.82;101601.09;5105050;28;20105;-60
2021/07/02 00:07:18;;;;;;;4.07;3.67;;;;;;;21.50;59.98;101595.97;5106200;28;20035;-60
2021/07/02 00:09:43;;;;;;;4.30;3.90;;;;;;;21.49;60.07;101605.75;5103967;28;20035;-60
2021/07/02 00:12:09;;;;;;;4.05;3.47;;;;;;;21.48;59.89;101598.78;5105556;28;20032;-60
2021/07/02 00:14:35;;;;;;;4.65;3.90;;;;;;;21.48;60.09;101592.66;5106380;28;20039;-60
2021/07/02 00:17:00;;;;;;;3.92;3.33;;;;;;;21.45;60.06;101591.19;5103206;28;20119;-60
2021/07/02 00:19:26;;;;;;;4.38;3.97;;;;;;;21.46;60.07;101595.47;5106617;28;20118;-60
2021/07/02 00:21:51;;;;;;;4.35;3.95;;;;;;;21.45;60.04;101587.72;5102081;28;20431;-60
2021/07/02 00:24:18;;;;;;;4.78;4.05;;;;;;;21.43;59.94;101587.88;5104061;28;20039;-60
2021/07/02 00:26:43;;;;;;;3.53;3.20;;;;;;;21.40;59.92;101583.75;5107429;28;20051;-60
2021/07/02 00:29:09;;;;;;;4.28;3.78;;;;;;;21.41;60.19;101576.63;5105577;28;20063;-60
2021/07/02 00:31:34;;;;;;;5.07;3.83;;;;;;;21.41;59.95;101581.94;5102260;28;20072;-60
2021/07/02 00:34:00;;;;;;;4.20;3.47;;;;;;;21.40;60.37;101577.63;5103627;28;20035;-60
2021/07/02 00:36:26;;;;;;;4.30;3.80;;;;;;;21.38;60.12;101575.16;5105518;28;20520;-60
2021/07/02 00:38:52;;;;;;;3.97;3.58;;;;;;;21.38;60.28;101577.81;5105154;28;20032;-60
2021/07/02 00:41:19;;;;;;;4.10;3.70;;;;;;;21.37;59.88;101577.97;5103250;28;20825;-60
2021/07/02 00:43:56;;;;;;;4.10;3.70;;;;;;;21.37;60.09;101575.34;5104143;28;20031;-60
2021/07/02 00:46:23;;;;;;;6.40;4.03;;;;;;;21.35;60.34;101577.31;5104238;28;20067;-60
2021/07/02 00:48:50;;;;;;;4.15;3.75;;;;;;;21.36;60.13;101568.34;5103559;28;20024;-60
2021/07/02 00:51:16;;;;;;;4.00;3.60;;;;;;;21.33;60.37;101564.22;5080808;28;20228;-60
2021/07/02 00:53:43;;;;;;;4.25;3.63;;;;;;;21.35;59.98;101564.06;5085117;28;20058;-60
2021/07/02 00:56:15;;;;;;;4.32;3.88;;;;;;;21.34;60.09;101567.69;5084562;28;20040;-60
2021/07/02 00:58:41;;;;;;;4.20;3.72;;;;;;;21.33;60.29;101566.88;5102942;28;20435;-60
2021/07/02 01:01:14;;;;;;;4.13;3.70;;;;;;;21.32;60.06;101564.41;5084475;28;20601;-60
2021/07/02 01:03:44;;;;;;;3.90;3.50;;;;;;;21.32;60.10;101559.94;5082859;28;20044;-60
2021/07/02 01:06:12;;;;;;;4.95;4.13;;;;;;;21.32;60.01;101551.16;5086857;28;20024;-60
2021/07/02 01:08:40;;;;;;;3.70;3.40;;;;;;;21.32;60.20;101559.09;5084954;28;20032;-61
2021/07/02 01:11:06;;;;;;;4.10;3.70;;;;;;;21.30;60.15;101559.28;5103676;28;20035;-60
2021/07/02 01:13:32;;;;;;;4.65;3.90;;;;;;;21.30;60.10;101563.75;5086922;28;20504;-60
2021/07/02 01:15:58;;;;;;;4.43;3.75;;;;;;;21.25;60.16;101558.16;5086961;28;20043;-60
2021/07/02 01:18:24;;;;;;;4.90;3.75;;;;;;;21.17;60.13;101547.53;5085895;28;20036;-60
2021/07/02 01:20:53;;;;;;;4.38;3.85;;;;;;;21.29;60.04;101570.06;5085896;28;20036;-60
2021/07/02 01:23:20;;;;;;;4.15;3.75;;;;;;;21.28;60.31;101563.09;5102132;28;20051;-60
2021/07/02 01:25:47;;;;;;;4.32;3.53;;;;;;;21.26;60.01;101573.88;5087047;28;20114;-60
2021/07/02 01:28:15;;;;;;;3.92;3.33;;;;;;;21.25;60.07;101561.63;5084672;28;20131;-60
2021/07/02 01:30:43;;;;;;;4.53;4.13;;;;;;;21.25;60.21;101568.75;5086392;28;20492;-60
2021/07/02 01:33:10;;;;;;;4.07;3.58;;;;;;;21.25;60.22;101568.75;5086974;28;20516;-60
2021/07/02 01:35:38;;;;;;;4.88;3.75;;;;;;;21.22;60.20;101567.25;5083928;28;20837;-60
2021/07/02 01:38:05;;;;;;;5.90;3.67;;;;;;;21.21;60.06;101570.88;5086701;28;20032;-60
2021/07/02 01:40:32;;;;;;;4.72;3.90;;;;;;;21.22;60.35;101572.53;5105461;28;20023;-60
2021/07/02 01:43:02;;;;;;;3.90;3.50;;;;;;;21.23;60.01;101573.38;5102476;28;20031;-60
2021/07/02 01:45:28;;;;;;;5.18;3.60;;;;;;;21.21;60.23;101572.72;5085662;28;20055;-60
2021/07/02 01:47:54;;;;;;;4.00;3.60;;;;;;;21.16;60.18;101565.25;5087025;28;20116;-60
2021/07/02 01:50:25;;;;;;;4.30;3.88;;;;;;;21.21;60.36;101583.31;5102266;28;20046;-60
2021/07/02 01:52:51;;;;;;;4.50;4.00;;;;;;;21.18;60.31;101576.50;5086336;28;20735;-60
2021/07/02 01:55:18;;;;;;;3.90;3.47;;;;;;;21.18;60.18;101583.63;5085087;28;20088;-60
2021/07/02 01:57:46;;;;;;;4.38;3.97;;;;;;;21.18;60.27;101580.97;5086115;28;20085;-60
2021/07/02 02:00:16;;;;;;;;;;;;;;;21.16;60.08;101581.16;5086972;28;20766;-60
2021/07/02 02:02:55;;;;;;;4.28;3.88;;;;;;;21.16;60.23;101578.50;5087358;28;19922;-60
2021/07/02 02:05:22;;;;;;;3.92;3.38;;;;;;;21.17;60.10;101574.03;5108413;28;20061;-60
2021/07/02 02:07:48;;;;;;;4.32;3.63;;;;;;;21.15;60.21;101578.66;5106320;28;20567;-60
2021/07/02 02:10:15;;;;;;;4.40;3.85;;;;;;;21.13;60.08;101573.53;5088293;28;20389;-60
2021/07/02 02:12:42;;;;;;;4.80;3.55;;;;;;;21.13;60.05;101574.38;5090483;28;20111;-60
2021/07/02 02:15:09;;;;;;;4.95;4.00;;;;;;;21.14;60.08;101577.84;5088534;28;20040;-60
2021/07/02 02:17:38;;;;;;;4.45;3.60;;;;;;;21.11;60.33;101568.41;5107918;28;20115;-60
2021/07/02 02:20:05;;;;;;;4.88;3.67;;;;;;;21.11;60.34;101568.41;5089583;28;20072;-60
2021/07/02 02:22:32;;;;;;;3.97;3.40;;;;;;;21.10;60.12;101561.47;5088458;28;20131;-60
2021/07/02 02:24:59;;;;;;;3.80;3.40;;;;;;;21.12;60.14;101550.72;5090490;28;20122;-60
2021/07/02 02:27:25;;;;;;;3.90;3.47;;;;;;;21.11;60.35;101562.28;5106021;28;20043;-60
2021/07/02 02:29:51;;;;;;;4.43;3.60;;;;;;;21.04;60.15;101551.56;5106303;28;20126;-60
2021/07/02 02:32:17;;;;;;;3.95;3.42;;;;;;;21.04;60.20;101556.88;5088958;28;20096;-60
2021/07/02 02:34:43;;;;;;;3.92;3.53;;;;;;;21.06;60.16;101556.69;5108293;28;20570;-60
2021/07/02 02:37:09;;;;;;;4.43;3.97;;;;;;;21.06;60.20;101552.22;5088945;28;20039;-60
2021/07/02 02:39:34;;;;;;;4.50;3.88;;;;;;;20.96;60.15;101537.50;5106580;28;20027;-60
2021/07/02 02:42:02;;;;;;;4.63;3.92;;;;;;;21.08;60.15;101554.69;5089477;28;20118;-60
2021/07/02 02:44:28;;;;;;;4.00;3.60;;;;;;;21.07;60.29;101561.00;5107500;28;20092;-60
2021/07/02 02:46:53;;;;;;;4.38;3.95;;;;;;;21.07;60.37;101567.13;5105314;28;20508;-60
2021/07/02 02:49:19;;;;;;;5.10;4.00;;;;;;;21.03;60.18;101564.97;5089995;28;20039;-60
2021/07/02 02:51:46;;;;;;;4.53;3.83;;;;;;;21.04;60.09;101569.28;5107215;28;20588;-60
2021/07/02 02:54:13;;;;;;;4.32;3.88;;;;;;;21.03;60.17;101570.28;5106490;28;20111;-60
2021/07/02 02:57:03;;;;;;;3.83;3.40;;;;;;;21.05;60.51;101573.59;5107086;28;20024;-60
2021/07/02 02:59:24;;;;;;;3.97;3.58;;;;;;;21.04;60.22;101575.41;5107175;28;20035;-60
2021/07/02 03:01:50;;;;;;;4.40;3.47;;;;;;;21.05;60.30;101573.59;5105221;28;20385;-60
2021/07/02 03:04:17;;;;;;;4.45;3.65;;;;;;;21.05;60.29;101573.59;5087420;28;20047;-60
2021/07/02 03:06:43;;;;;;;4.50;4.10;;;;;;;21.03;60.08;101571.09;5106242;28;20024;-60
2021/07/02 03:09:09;;;;;;;4.47;4.07;;;;;;;21.03;60.27;101571.09;5088227;28;20168;-60
2021/07/02 03:11:34;;;;;;;4.43;4.03;;;;;;;21.02;60.37;101566.81;5107629;28;20278;-60
2021/07/02 03:14:01;;;;;;;3.53;3.22;;;;;;;21.02;60.18;101565.97;5088684;28;20460;-60
2021/07/02 03:16:26;;;;;;;4.05;3.60;;;;;;;21.01;60.23;101562.50;5085714;28;20055;-60
2021/07/02 03:18:52;;;;;;;4.32;3.70;;;;;;;21.01;60.32;101565.16;5088983;28;20039;-60
2021/07/02 03:21:18;;;;;;;4.25;3.45;;;;;;;21.02;60.28;101565.97;5104304;28;20047;-60
2021/07/02 03:23:43;;;;;;;4.65;3.53;;;;;;;21.01;60.25;101565.16;5087867;28;20841;-60
2021/07/02 03:26:11;;;;;;;4.10;3.63;;;;;;;21.01;60.28;101566.97;5087653;28;20138;-60
2021/07/02 03:28:38;;;;;;;4.97;3.90;;;;;;;21.00;60.18;101568.78;5087934;28;20035;-60
2021/07/02 03:31:04;;;;;;;4.60;3.83;;;;;;;21.00;60.26;101566.13;5106631;28;20644;-60
2021/07/02 03:33:32;;;;;;;3.60;3.10;;;;;;;21.00;60.33;101565.28;5088596;28;20891;-60
2021/07/02 03:35:59;;;;;;;4.30;3.65;;;;;;;20.99;60.23;101561.00;5087712;28;20035;-60
2021/07/02 03:38:25;;;;;;;4.47;3.50;;;;;;;20.99;60.02;101568.94;5087681;28;20036;-60
2021/07/02 03:40:51;;;;;;;4.38;3.65;;;;;;;20.97;60.11;101570.94;5088738;28;20031;-60
2021/07/02 03:43:17;;;;;;;5.18;4.10;;;;;;;20.99;60.22;101567.13;5105653;28;20386;-60
2021/07/02 03:45:44;;;;;;;4.57;3.90;;;;;;;20.99;60.23;101571.59;5103569;28;20120;-60
2021/07/02 03:48:11;;;;;;;5.65;4.00;;;;;;;20.99;60.21;101574.25;5087618;28;20057;-60
2021/07/02 03:50:38;;;;;;;5.35;3.70;;;;;;;20.98;60.20;101573.41;5097862;28;20032;-60
2021/07/02 03:53:04;;;;;;;4.68;3.90;;;;;;;20.97;60.17;101571.75;5088975;28;20489;-60
2021/07/02 03:55:30;;;;;;;4.15;3.72;;;;;;;20.99;60.11;101575.06;5105667;28;20035;-60
2021/07/02 03:57:55;;;;;;;4.25;3.80;;;;;;;20.98;60.28;101573.41;5103917;28;20401;-59
2021/07/02 04:00:21;;;;;;;5.18;4.15;;;;;;;20.99;60.10;101572.41;5103258;28;20024;-60
2021/07/02 04:02:47;;;;;;;5.50;4.40;;;;;;;20.95;60.06;101565.81;5106025;28;20067;-60
2021/07/02 04:05:13;;;;;;;4.72;4.15;;;;;;;20.98;59.91;101573.41;5104723;28;20184;-60
2021/07/02 04:07:38;;;;;;;5.47;3.65;;;;;;;20.98;60.08;101568.13;5104799;28;20035;-60
2021/07/02 04:10:05;;;;;;;5.57;4.32;;;;;;;20.99;60.11;101566.28;5106294;28;20039;-60
2021/07/02 04:12:30;;;;;;;5.00;4.13;;;;;;;20.99;60.05;101572.41;5104145;28;20158;-60
2021/07/02 04:14:56;;;;;;;5.38;4.28;;;;;;;20.98;60.13;101573.41;5102935;28;20048;-60
2021/07/02 04:17:21;;;;;;;4.13;3.47;;;;;;;20.99;60.08;101580.34;5103900;28;20046;-60
2021/07/02 04:19:47;;;;;;;5.22;4.20;;;;;;;20.98;60.04;101580.53;5105779;28;20538;-60
2021/07/02 04:22:13;;;;;;;4.78;3.97;;;;;;;20.99;59.98;101590.13;5106686;28;20028;-60
2021/07/02 04:24:38;;;;;;;5.00;3.85;;;;;;;20.95;59.91;101580.88;5085961;28;20136;-60
2021/07/02 04:27:04;;;;;;;4.18;3.60;;;;;;;20.99;60.04;101595.41;5106630;28;20031;-60
2021/07/02 04:29:30;;;;;;;4.90;3.72;;;;;;;20.98;60.03;101597.25;5102481;28;20493;-60
2021/07/02 04:31:56;;;;;;;4.28;3.40;;;;;;;20.98;60.06;101597.25;5104031;28;20115;-60
2021/07/02 04:34:21;;;;;;;4.97;4.15;;;;;;;20.99;59.83;101598.06;5106741;28;20031;-60
2021/07/02 04:36:47;;;;;;;4.40;3.47;;;;;;;20.99;59.97;101598.06;5104260;28;20039;-60
2021/07/02 04:39:13;;;;;;;4.68;4.05;;;;;;;20.99;60.00;101604.19;5103925;28;20125;-60
2021/07/02 04:41:39;;;;;;;4.47;3.75;;;;;;;20.99;60.20;101604.19;5105028;28;20035;-60
2021/07/02 04:44:04;;;;;;;4.22;3.00;;;;;;;20.99;60.10;101601.53;5104836;28;20045;-60
2021/07/02 04:46:30;;;;;;;4.80;3.47;;;;;;;21.00;60.00;101605.84;5103368;28;20106;-59
2021/07/02 04:48:56;;;;;;;4.20;3.30;;;;;;;21.00;59.83;101605.00;5102757;28;21214;-59
2021/07/02 04:51:22;;;;;;;3.38;3.00;;;;;;;20.99;59.95;101612.13;5103666;28;20032;-59
2021/07/02 04:53:48;;;;;;;3.42;3.08;;;;;;;20.98;59.85;101613.13;5103773;28;20128;-59
2021/07/02 04:56:14;;;;;;;3.70;3.10;;;;;;;20.96;59.99;101617.78;5103165;28;20130;-59
2021/07/02 04:58:41;;;;;;;3.80;3.20;;;;;;;20.97;59.97;101621.25;5105658;28;20084;-60
2021/07/02 05:01:07;;;;;;;3.38;3.08;;;;;;;20.96;60.15;101622.25;5103483;28;20036;-60
2021/07/02 05:03:32;;;;;;;3.47;3.05;;;;;;;20.95;60.01;101621.41;5104533;28;20059;-59
2021/07/02 05:06:03;;;;;;;3.75;3.35;;;;;;;20.95;59.98;101624.06;5102501;28;20032;-59
2021/07/02 05:08:30;;;;;;;3.83;2.97;;;;;;;20.95;59.94;101621.41;5102168;28;20561;-59
2021/07/02 05:10:55;;;;;;;3.30;3.00;;;;;;;20.96;59.90;101620.41;5104373;28;20130;-59
2021/07/02 05:13:21;;;;;;;3.53;3.10;;;;;;;20.95;60.02;101620.59;5104373;28;20032;-59
2021/07/02 05:15:47;;;;;;;3.67;3.10;;;;;;;20.97;59.97;101623.88;5104144;28;20096;-59
2021/07/02 05:18:13;;;;;;;3.45;2.90;;;;;;;20.96;60.08;101623.06;5104587;28;20516;-59
2021/07/02 05:20:43;;;;;;;3.28;2.97;;;;;;;20.96;59.77;101620.41;5102951;28;20031;-59
2021/07/02 05:23:09;;;;;;;;;;;;;;;20.97;59.92;101623.88;5101093;28;20039;-59
2021/07/02 05:25:34;;;;;;;3.28;2.85;;;;;;;20.97;59.74;101621.25;5104884;28;19919;-59
2021/07/02 05:28:00;;;;;;;3.10;2.80;;;;;;;20.87;59.71;101608.19;5103698;28;20788;-59
2021/07/02 05:30:26;;;;;;;3.65;3.08;;;;;;;20.95;59.91;101623.22;5104853;28;20036;-59
2021/07/02 05:32:52;;;;;;;3.72;2.97;;;;;;;20.96;60.00;101628.38;5104645;28;20230;-59
2021/07/02 05:35:18;;;;;;;3.25;2.80;;;;;;;20.92;59.93;101616.47;5104455;28;20118;-59
2021/07/02 05:37:44;;;;;;;3.03;2.72;;;;;;;20.95;59.78;101632.00;5101386;28;20078;-60
2021/07/02 05:40:12;;;;;;;3.63;3.17;;;;;;;20.94;59.81;101634.81;5107960;28;20042;-59
2021/07/02 05:42:38;;;;;;;3.45;2.88;;;;;;;20.91;60.06;101630.69;5108260;28;20061;-59
2021/07/02 05:45:05;;;;;;;3.40;2.90;;;;;;;20.92;59.95;101634.16;5109353;28;20104;-59
2021/07/02 05:47:49;;;;;;;3.90;2.83;;;;;;;20.93;59.76;101627.88;5107119;28;20035;-59
2021/07/02 05:50:15;;;;;;;4.30;2.80;;;;;;;20.91;59.96;101625.41;5108323;28;20572;-59
2021/07/02 05:52:41;;;;;;;3.50;3.00;;;;;;;20.94;59.77;101634.81;5106005;28;20047;-60
2021/07/02 05:55:07;;;;;;;3.47;2.97;;;;;;;20.93;59.91;101636.63;5109467;28;20082;-59
2021/07/02 05:57:33;;;;;;;3.58;2.80;;;;;;;20.93;60.00;101638.47;5074645;28;20043;-59
2021/07/02 05:59:58;;;;;;;3.13;2.67;;;;;;;20.92;60.04;101635.00;5105971;28;20790;-59
2021/07/02 06:02:24;;;;;;;3.10;2.80;;;;;;;20.93;59.96;101641.94;5106306;28;20074;-60
2021/07/02 06:04:49;;;;;;;4.03;3.10;;;;;;;20.95;60.09;101641.78;5096011;28;20116;-58
2021/07/02 06:07:15;;;;;;;2.95;2.65;;;;;;;20.94;60.26;101638.28;5091877;28;20032;-58
2021/07/02 06:09:40;;;;;;;3.33;3.03;;;;;;;20.94;59.96;101650.72;5093090;28;20093;-58
2021/07/02 06:12:06;;;;;;;5.25;3.20;;;;;;;20.91;60.54;101651.88;5105893;28;20032;-59
2021/07/02 06:14:32;;;;;;;3.78;2.60;;;;;;;20.91;60.46;101654.53;5108662;28;20070;-59
2021/07/02 06:16:58;;;;;;;3.40;2.67;;;;;;;20.93;60.19;101649.88;5108055;28;20044;-59
2021/07/02 06:19:24;;;;;;;3.58;2.78;;;;;;;20.93;60.17;101651.69;5082180;28;20101;-59
2021/07/02 06:21:50;;;;;;;3.22;2.88;;;;;;;20.93;60.18;101655.19;5106577;28;20030;-60
2021/07/02 06:24:15;;;;;;;3.13;2.80;;;;;;;20.93;59.99;101655.19;5090422;28;20047;-59
2021/07/02 06:26:41;;;;;;;3.88;2.75;;;;;;;20.91;60.05;101651.88;5072445;28;20027;-60
2021/07/02 06:29:07;;;;;;;3.53;2.80;;;;;;;20.93;59.85;101652.53;5107150;28;20063;-60
2021/07/02 06:31:32;;;;;;;3.33;2.90;;;;;;;20.92;60.19;101665.94;5106712;28;20085;-59
2021/07/02 06:33:58;;;;;;;3.20;2.80;;;;;;;20.86;60.37;101662.16;5088532;28;20032;-59
2021/07/02 06:36:24;;;;;;;4.05;3.05;;;;;;;20.84;60.59;101660.66;5089560;28;20042;-59
2021/07/02 06:38:49;;;;;;;4.28;3.25;;;;;;;20.81;60.79;101657.31;5105273;28;20031;-60
2021/07/02 06:41:15;;;;;;;3.63;3.13;;;;;;;20.72;61.06;101646.91;5104166;28;20069;-60
2021/07/02 06:43:41;;;;;;;4.05;3.13;;;;;;;20.62;62.03;101655.00;5103388;28;20028;-60
2021/07/02 06:46:06;;;;;;;6.30;3.38;;;;;;;20.58;62.23;101661.63;5102124;28;20044;-60
2021/07/02 06:48:32;;;;;;;4.13;3.47;;;;;;;20.47;62.59;101648.75;5105273;28;20052;-60
2021/07/02 06:50:57;;;;;;;6.18;3.75;;;;;;;20.45;63.03;101654.16;5106356;27;20044;-60
2021/07/02 06:53:24;;;;;;;5.35;3.75;;;;;;;20.47;62.97;101657.50;5088023;28;20055;-60
2021/07/02 06:55:51;;;;;;;4.53;3.45;;;;;;;20.47;63.00;101667.25;5103224;28;20031;-60
2021/07/02 06:58:17;;;;;;;6.10;3.78;;;;;;;20.43;63.17;101661.44;5106187;28;20045;-60
2021/07/02 07:00:43;;;;;;;4.90;3.47;;;;;;;20.43;63.24;101665.91;5106498;28;20854;-63
2021/07/02 07:03:09;;;;;;;5.65;3.72;;;;;;;20.40;63.33;101658.28;5107607;28;20587;-60
2021/07/02 07:05:37;;;;;;;4.55;3.55;;;;;;;20.40;63.37;101666.22;5107550;28;20058;-60
2021/07/02 07:08:04;;;;;;;6.50;3.45;;;;;;;20.39;63.31;101672.50;5105618;28;20035;-60
2021/07/02 07:10:30;;;;;;;4.22;3.58;;;;;;;20.38;63.24;101669.03;5106070;28;20047;-60
2021/07/02 07:12:57;;;;;;;4.72;3.85;;;;;;;20.37;63.43;101667.38;5103738;28;20032;-60
2021/07/02 07:15:24;;;;;;;4.32;3.83;;;;;;;20.36;63.43;101671.00;5104693;28;20032;-60
2021/07/02 07:17:49;;;;;;;3.92;3.10;;;;;;;20.36;63.36;101668.34;5102777;28;20058;-60
2021/07/02 07:20:15;;;;;;;4.22;3.35;;;;;;;20.39;63.31;101672.50;5103955;28;20138;-60
2021/07/02 07:22:40;;;;;;;4.47;3.40;;;;;;;20.31;63.10;101659.25;5103857;28;20027;-59
2021/07/02 07:25:06;;;;;;;6.32;3.38;;;;;;;20.38;63.06;101669.03;5103865;28;20043;-59
2021/07/02 07:27:32;;;;;;;4.20;3.33;;;;;;;20.38;63.14;101666.38;5085594;28;20059;-59
2021/07/02 07:29:58;;;;;;;3.78;3.30;;;;;;;20.50;62.86;101664.28;5083833;28;20923;-62
2021/07/02 07:32:24;;;;;;;3.65;3.00;;;;;;;20.56;62.75;101663.63;5092361;28;20039;-62
2021/07/02 07:34:56;;;;;;;4.53;3.30;;;;;;;20.68;62.14;101667.59;5102759;28;20047;-60
2021/07/02 07:37:23;;;;;;;4.00;3.20;;;;;;;20.88;61.97;101670.75;5103032;28;20040;-62
2021/07/02 07:39:49;;;;;;;3.65;2.92;;;;;;;20.95;61.64;101661.13;5102621;28;20031;-62
2021/07/02 07:42:16;;;;;;;3.83;3.03;;;;;;;21.13;61.62;101680.31;5103152;28;20545;-62
2021/07/02 07:44:41;;;;;;;3.60;3.00;;;;;;;21.21;61.07;101670.72;5103366;28;20035;-61
2021/07/02 07:47:08;;;;;;;3.72;2.67;;;;;;;21.28;61.16;101675.19;5067438;27;20035;-61
2021/07/02 07:49:33;;;;;;;3.53;2.70;;;;;;;21.33;61.18;101672.84;5102993;28;20123;-62
2021/07/02 07:52:37;;;;;;;4.82;2.90;;;;;;;21.39;61.10;101684.63;5072591;28;20028;-61
2021/07/02 07:54:51;;;;;;;3.22;2.80;;;;;;;21.42;60.89;101687.75;5099498;28;20067;-60
2021/07/02 07:57:16;;;;;;;4.00;3.10;;;;;;;21.49;60.55;101701.13;5076941;27;20035;-61
2021/07/02 07:59:42;;;;;;;4.10;2.80;;;;;;;21.52;60.51;101690.19;5103368;28;20070;-60
2021/07/02 08:02:08;;;;;;;2.85;2.58;;;;;;;21.57;60.27;101689.69;5071761;28;20067;-59
2021/07/02 08:04:34;;;;;;;3.42;3.00;;;;;;;21.61;60.51;101693.66;5100439;28;20059;-59
2021/07/02 08:06:59;;;;;;;4.47;3.30;;;;;;;21.63;60.21;101691.66;5074739;28;20035;-60
2021/07/02 08:09:26;;;;;;;3.22;2.72;;;;;;;21.67;60.21;101692.97;5100056;28;20590;-61
2021/07/02 08:11:51;;;;;;;5.00;2.50;;;;;;;21.71;60.11;101691.63;5074136;28;20031;-59
2021/07/02 08:14:17;;;;;;;3.30;2.65;;;;;;;21.75;60.16;101705.38;5101339;28;20043;-59
2021/07/02 08:16:42;;;;;;;3.10;2.60;;;;;;;21.77;59.86;101706.84;5073386;28;20127;-61
2021/07/02 08:19:08;;;;;;;2.90;2.40;;;;;;;21.80;59.92;101703.03;5089171;28;20046;-60
2021/07/02 08:21:34;;;;;;;3.25;2.70;;;;;;;21.82;59.75;101701.88;5103095;28;20036;-61
2021/07/02 08:23:59;;;;;;;3.42;2.80;;;;;;;21.73;59.97;101681.69;5075224;28;20043;-60
2021/07/02 08:26:26;;;;;;;3.17;2.50;;;;;;;21.91;59.42;101695.53;5104129;28;20039;-60
2021/07/02 08:31:36;;;;;;;3.67;2.70;;;;;;;21.98;59.38;101698.31;5095232;28;20173;-61
2021/07/02 08:34:02;;;;;;;4.38;2.80;;;;;;;21.98;59.61;101691.19;5065168;28;20039;-61
2021/07/02 08:36:28;;;;;;;3.50;2.80;;;;;;;21.97;59.68;101699.31;5087313;28;20077;-57
2021/07/02 08:38:54;;;;;;;3.90;2.90;;;;;;;21.93;59.63;101703.31;5087203;28;20070;-58
2021/07/02 08:41:20;;;;;;;3.85;2.38;;;;;;;21.91;59.60;101700.84;5069121;28;20084;-58
2021/07/02 08:43:47;;;;;;;4.28;2.83;;;;;;;21.94;59.03;101697.03;5084177;28;20031;-59
2021/07/02 08:46:15;;;;;;;6.50;3.03;;;;;;;21.98;59.62;101703.63;5099457;28;20450;-63
2021/07/02 08:48:41;;;;;;;3.92;3.03;;;;;;;22.02;59.32;101704.91;5095995;28;20048;-59
2021/07/02 08:51:08;;;;;;;8.75;2.90;;;;;;;22.06;59.16;101705.44;5059350;28;20075;-62
2021/07/02 08:53:34;;;;;;;3.20;2.60;;;;;;;22.08;59.25;101708.72;5096867;28;20488;-62
2021/07/02 08:56:03;;;;;;;3.75;2.80;;;;;;;22.10;59.32;101712.88;5086853;28;21673;-63
2021/07/02 08:58:29;;;;;;;3.40;2.40;;;;;;;22.07;59.16;101699.94;5104699;28;20067;-63
2021/07/02 09:00:56;;;;;;;3.30;2.58;;;;;;;22.14;59.44;101700.09;5062263;28;20065;-62
2021/07/02 09:03:29;;;;;;;3.92;2.67;;;;;;;22.16;59.63;101700.75;5098510;28;20051;-62
2021/07/02 09:06:19;;;;;;;3.20;2.40;;;;;;;22.17;59.22;101705.88;5074867;28;20853;-62
2021/07/02 09:09:01;;;;;;;3.60;2.53;;;;;;;22.19;59.32;101709.19;5104097;28;20110;-61
2021/07/02 09:11:34;;;;;;;2.58;2.35;;;;;;;22.23;59.47;101705.16;5077429;28;20032;-66
2021/07/02 09:14:00;;;;;;;3.50;2.33;;;;;;;22.30;58.93;101703.50;5099131;28;20117;-62
2021/07/02 09:16:36;;;;;;;3.17;2.42;;;;;;;22.33;58.84;101694.34;5075543;28;20267;-61
2021/07/02 09:19:27;;;;;;;2.80;2.50;;;;;;;22.42;58.98;101697.75;5102800;28;20032;-62
2021/07/02 09:22:13;;;;;;;3.28;2.40;;;;;;;22.45;58.52;101703.56;5068434;28;20469;-62
2021/07/02 09:24:44;;;;;;;2.63;2.42;;;;;;;22.45;58.60;101702.75;5102548;28;20044;-62
2021/07/02 09:27:23;;;;;;;2.97;2.53;;;;;;;22.51;58.43;101710.00;5072209;28;20042;-61
2021/07/02 09:30:09;;;;;;;2.67;2.47;;;;;;;22.54;58.64;101712.28;5100293;28;20084;-62
2021/07/02 09:32:43;;;;;;;2.80;2.30;;;;;;;22.55;58.35;101711.28;5074680;28;20122;-61
2021/07/02 09:35:11;;;;;;;2.58;2.30;;;;;;;22.59;58.53;101710.75;5083768;28;20174;-63
2021/07/02 09:37:50;;;;;;;3.00;2.40;;;;;;;22.63;58.40;101710.41;5076755;28;20650;-61
2021/07/02 09:40:23;;;;;;;4.32;2.53;;;;;;;22.67;58.59;101715.19;5081438;28;20485;-61
2021/07/02 09:43:09;;;;;;;4.00;2.78;;;;;;;22.66;58.09;101712.72;5073354;28;20040;-59
2021/07/02 09:45:53;;;;;;;3.67;2.65;;;;;;;22.54;58.51;101718.44;5101991;28;20397;-59
2021/07/02 09:48:23;;;;;;;3.47;2.50;;;;;;;22.45;58.90;101718.66;5078494;28;20113;-60
2021/07/02 09:50:56;;;;;;;3.95;2.00;;;;;;;22.39;58.66;101716.69;5097796;28;20039;-60
2021/07/02 09:53:25;;;;;;;2.70;2.50;;;;;;;22.34;58.66;101714.56;5064926;28;20031;-60
2021/07/02 09:55:56;;;;;;;3.17;2.33;;;;;;;22.32;58.48;101724.53;5100214;28;20485;-60
2021/07/02 09:58:28;;;;;;;2.53;2.28;;;;;;;22.31;58.69;101726.38;5081543;28;20431;-60
2021/07/02 10:00:55;;;;;;;3.38;2.30;;;;;;;22.30;58.49;101734.50;5099667;28;20397;-60
2021/07/02 10:03:26;;;;;;;3.80;2.28;;;;;;;22.27;58.42;101735.69;5080805;28;20090;-60
2021/07/02 10:06:01;;;;;;;2.47;2.28;;;;;;;22.16;58.77;101716.66;5097811;28;20148;-59
2021/07/02 10:08:28;;;;;;;2.50;2.28;;;;;;;22.25;58.60;101739.47;5071768;28;20766;-59
2021/07/02 10:10:55;;;;;;;2.60;2.25;;;;;;;22.23;58.89;101744.97;5097161;28;21927;-60
2021/07/02 10:13:25;;;;;;;2.50;2.17;;;;;;;22.19;58.33;101742.84;5061828;28;20046;-60
2021/07/02 10:15:51;;;;;;;2.63;2.33;;;;;;;22.21;58.82;101748.78;5100525;28;20027;-60
2021/07/02 10:18:17;;;;;;;2.42;2.22;;;;;;;22.20;58.75;101745.31;5076878;28;20036;-59
2021/07/02 10:20:44;;;;;;;2.72;2.22;;;;;;;22.20;58.87;101744.50;5092111;28;20085;-59
2021/07/02 10:23:12;;;;;;;3.20;2.30;;;;;;;22.19;58.50;101742.84;5074312;28;20263;-60
2021/07/02 10:25:41;;;;;;;2.60;2.30;;;;;;;22.16;58.63;101741.38;5101170;28;20074;-60
2021/07/02 10:28:09;;;;;;;2.42;2.22;;;;;;;22.20;58.56;101744.50;5098340;28;20131;-59
2021/07/02 10:30:35;;;;;;;2.33;2.13;;;;;;;22.21;58.50;101740.84;5090301;28;20051;-60
2021/07/02 10:33:01;;;;;;;2.97;2.50;;;;;;;22.21;58.56;101751.44;5097573;28;20039;-60
2021/07/02 10:35:29;;;;;;;2.88;2.53;;;;;;;22.21;58.17;101748.78;5079869;28;20230;-60
2021/07/02 10:37:58;;;;;;;2.97;2.00;;;;;;;22.21;58.35;101752.28;5107469;28;20186;-60
2021/07/02 10:40:41;;;;;;;2.90;2.30;;;;;;;22.23;58.28;101750.28;5060284;28;20136;-60
2021/07/02 10:43:08;;;;;;;4.32;2.30;;;;;;;22.23;58.51;101755.56;5106058;28;20405;-59
2021/07/02 10:45:35;;;;;;;2.40;2.20;;;;;;;22.22;58.11;101748.63;5084234;27;20046;-59
2021/07/02 10:48:01;;;;;;;2.80;2.50;;;;;;;22.24;58.26;101753.75;5087907;28;20445;-59
2021/07/02 10:50:36;;;;;;;2.60;2.35;;;;;;;22.27;58.07;101758.75;5087587;28;20032;-60
2021/07/02 10:53:29;;;;;;;2.58;2.38;;;;;;;22.27;58.02;101759.56;5106914;28;20516;-60
2021/07/02 10:55:55;;;;;;;2.63;2.40;;;;;;;22.28;58.10;101761.22;5084536;28;20100;-59
2021/07/02 10:58:22;;;;;;;2.92;2.63;;;;;;;22.30;57.84;101764.53;5099353;28;20032;-59
2021/07/02 11:01:10;;;;;;;2.63;2.38;;;;;;;22.31;57.83;101768.81;5086056;28;20042;-60
2021/07/02 11:03:37;;;;;;;2.78;2.58;;;;;;;22.34;58.10;101764.16;5089696;28;20101;-59
2021/07/02 11:06:39;;;;;;;3.25;2.47;;;;;;;22.33;58.25;101767.81;5083864;28;20130;-59
2021/07/02 11:09:06;;;;;;;2.88;2.20;;;;;;;22.35;57.75;101765.81;5077712;28;20154;-59
2021/07/02 11:12:08;;;;;;;2.97;2.17;;;;;;;22.34;57.86;101767.66;5099725;28;20028;-59
2021/07/02 11:15:08;;;;;;;2.38;2.10;;;;;;;22.35;58.07;101779.09;5084908;28;20317;-60
2021/07/02 11:17:47;;;;;;;2.20;2.00;;;;;;;22.31;57.72;101778.63;5103313;28;20035;-60
2021/07/02 11:20:17;;;;;;;2.50;2.10;;;;;;;22.35;57.84;101776.44;5085232;28;20023;-60
2021/07/02 11:22:48;;;;;;;2.60;2.33;;;;;;;22.36;57.61;101786.03;5103698;28;20035;-59
2021/07/02 11:25:43;;;;;;;2.30;2.10;;;;;;;22.30;57.64;101769.00;5076093;28;20118;-59
2021/07/02 11:28:10;;;;;;;2.60;2.10;;;;;;;22.37;57.87;101779.72;5106801;28;20039;-60
2021/07/02 11:30:38;;;;;;;2.58;2.38;;;;;;;22.37;57.73;101788.53;5082289;28;20102;-59
2021/07/02 11:33:13;;;;;;;2.80;2.30;;;;;;;22.38;57.65;101789.34;5097607;28;20380;-59